createdAt,value
2022-12-11T00:00:56.164Z,97333.56
2022-12-11T00:03:24.181Z,97337.34
2022-12-11T00:05:51.815Z,97332.31
2022-12-11T00:08:19.470Z,97311.03
2022-12-11T00:10:48.774Z,97312.16
2022-12-11T00:13:16.544Z,97313.53
2022-12-11T00:15:44.147Z,97313.84
2022-12-11T00:18:13.106Z,97315.72
2022-12-11T00:20:40.956Z,97304.75
2022-12-11T00:23:08.620Z,97296.13
2022-12-11T00:25:41.892Z,97294.09
2022-12-11T00:28:09.761Z,97298.34
2022-12-11T00:30:41.580Z,97295.66
2022-12-11T00:33:11.350Z,97294.25
2022-12-11T00:35:40.718Z,97296.13
2022-12-11T00:38:08.463Z,97299.75
2022-12-11T00:40:37.054Z,97297.41
2022-12-11T00:43:05.037Z,97304.09
2022-12-11T00:45:36.646Z,97301.78
2022-12-11T00:48:04.799Z,97295.97
2022-12-11T00:50:33.761Z,97304.28
2022-12-11T00:53:01.836Z,97309.13
2022-12-11T00:55:29.768Z,97306.31
2022-12-11T00:57:57.861Z,97305.38
2022-12-11T01:00:25.672Z,97318.06
2022-12-11T01:02:53.396Z,97309.94
2022-12-11T01:05:21.470Z,97311.81
2022-12-11T01:07:49.348Z,97316.81
2022-12-11T01:10:17.159Z,97314.44
2022-12-11T01:12:45.136Z,97313.06
2022-12-11T01:15:12.930Z,97318.97
2022-12-11T01:17:41.207Z,97324.47
2022-12-11T01:20:09.529Z,97325.41
2022-12-11T01:22:37.175Z,97330.59
2022-12-11T01:25:05.234Z,97332.00
2022-12-11T01:27:33.174Z,97332.00
2022-12-11T01:30:00.885Z,97347.78
2022-12-11T01:32:28.812Z,97343.75
2022-12-11T01:34:56.729Z,97337.66
2022-12-11T01:37:24.401Z,97337.59
2022-12-11T01:39:52.433Z,97339.34
2022-12-11T01:42:21.132Z,97332.78
2022-12-11T01:44:48.601Z,97335.44
2022-12-11T01:47:16.592Z,97339.81
2022-12-11T01:49:44.593Z,97327.28
2022-12-11T01:52:20.079Z,97336.03
2022-12-11T01:54:48.227Z,97334.34
2022-12-11T01:57:16.093Z,97348.91
2022-12-11T01:59:46.492Z,97355.00
2022-12-11T02:02:21.133Z,97356.13
2022-12-11T02:04:49.126Z,97352.38
2022-12-11T02:07:16.743Z,97355.97
2022-12-11T02:09:46.247Z,97355.63
2022-12-11T02:12:27.726Z,97353.12
2022-12-11T02:15:15.532Z,97355.13
2022-12-11T02:17:58.388Z,97359.19
2022-12-11T02:20:42.456Z,97355.56
2022-12-11T02:23:13.071Z,97356.03
2022-12-11T02:26:18.153Z,97353.66
2022-12-11T02:28:54.015Z,97352.88
2022-12-11T02:31:29.501Z,97365.53
2022-12-11T02:34:23.692Z,97358.00
2022-12-11T02:36:58.063Z,97355.66
2022-12-11T02:39:26.577Z,97365.81
2022-12-11T02:41:55.146Z,97363.03
2022-12-11T02:44:26.854Z,97350.16
2022-12-11T02:46:55.224Z,97352.25
2022-12-11T02:49:23.410Z,97360.94
2022-12-11T02:51:52.056Z,97362.06
2022-12-11T02:54:25.147Z,97345.34
2022-12-11T02:56:59.324Z,97343.00
2022-12-11T02:59:32.917Z,97343.13
2022-12-11T03:02:01.360Z,97327.84
2022-12-11T03:04:30.092Z,97339.09
2022-12-11T03:07:06.569Z,97338.09
2022-12-11T03:09:34.801Z,97343.66
2022-12-11T03:12:02.719Z,97343.69
2022-12-11T03:14:30.780Z,97336.34
2022-12-11T03:17:19.240Z,97333.81
2022-12-11T03:20:05.031Z,97335.25
2022-12-11T03:22:52.891Z,97329.59
2022-12-11T03:25:29.338Z,97324.81
2022-12-11T03:28:00.597Z,97320.41
2022-12-11T03:30:28.693Z,97307.91
2022-12-11T03:33:07.121Z,97313.19
2022-12-11T03:35:41.724Z,97311.69
2022-12-11T03:38:16.635Z,97311.66
2022-12-11T03:40:46.785Z,97308.13
2022-12-11T03:43:15.238Z,97306.03
2022-12-11T03:45:43.715Z,97315.69
2022-12-11T03:48:12.013Z,97319.13
2022-12-11T03:50:40.525Z,97324.06
2022-12-11T03:53:08.216Z,97322.31
2022-12-11T03:55:37.549Z,97338.88
2022-12-11T03:58:05.163Z,97336.00
2022-12-11T04:00:33.104Z,97339.13
2022-12-11T04:03:01.153Z,97336.00
2022-12-11T04:05:28.774Z,97341.63
2022-12-11T04:07:56.410Z,97329.62
2022-12-11T04:10:24.411Z,97332.28
2022-12-11T04:12:51.997Z,97336.91
2022-12-11T04:15:19.924Z,97336.62
2022-12-11T04:17:47.969Z,97341.72
2022-12-11T04:20:16.500Z,97339.00
2022-12-11T04:22:44.165Z,97348.75
2022-12-11T04:25:12.279Z,97353.69
2022-12-11T04:27:40.090Z,97352.81
2022-12-11T04:30:11.049Z,97358.47
2022-12-11T04:32:39.039Z,97361.69
2022-12-11T04:35:09.185Z,97375.06
2022-12-11T04:37:37.835Z,97373.69
2022-12-11T04:40:08.289Z,97379.31
2022-12-11T04:42:36.072Z,97378.81
2022-12-11T04:45:05.142Z,97384.19
2022-12-11T04:47:35.086Z,97394.97
2022-12-11T04:50:04.910Z,97399.88
2022-12-11T04:52:33.096Z,97408.63
2022-12-11T04:55:00.935Z,97411.16
2022-12-11T04:57:28.642Z,97413.75
2022-12-11T04:59:56.688Z,97418.97
2022-12-11T05:02:24.352Z,97422.59
2022-12-11T05:04:52.123Z,97431.44
2022-12-11T05:07:20.107Z,97422.41
2022-12-11T05:09:47.909Z,97424.56
2022-12-11T05:12:15.465Z,97426.59
2022-12-11T05:14:43.479Z,97435.44
2022-12-11T05:17:11.171Z,97439.66
2022-12-11T05:19:39.128Z,97437.94
2022-12-11T05:22:07.019Z,97430.13
2022-12-11T05:24:35.156Z,97432.22
2022-12-11T05:27:02.804Z,97437.41
2022-12-11T05:29:30.887Z,97449.44
2022-12-11T05:32:00.922Z,97430.38
2022-12-11T05:34:28.612Z,97439.94
2022-12-11T05:36:56.695Z,97439.53
2022-12-11T05:39:27.379Z,97434.13
2022-12-11T05:41:54.945Z,97444.84
2022-12-11T05:44:22.894Z,97437.25
2022-12-11T05:46:50.590Z,97445.81
2022-12-11T05:49:20.008Z,97436.59
2022-12-11T05:51:48.561Z,97436.91
2022-12-11T05:54:16.217Z,97433.84
2022-12-11T05:56:43.781Z,97429.34
2022-12-11T05:59:12.070Z,97445.09
2022-12-11T06:01:42.466Z,97439.34
2022-12-11T06:04:11.621Z,97442.28
2022-12-11T06:06:39.562Z,97459.66
2022-12-11T06:09:07.315Z,97455.25
2022-12-11T06:11:35.864Z,97465.06
2022-12-11T06:14:03.978Z,97461.81
2022-12-11T06:16:33.620Z,97469.94
2022-12-11T06:19:01.930Z,97475.84
2022-12-11T06:21:31.895Z,97480.47
2022-12-11T06:24:02.825Z,97479.88
2022-12-11T06:26:31.065Z,97492.44
2022-12-11T06:28:58.665Z,97491.59
2022-12-11T06:31:26.536Z,97490.19
2022-12-11T06:33:54.673Z,97496.75
2022-12-11T06:36:23.471Z,97508.81
2022-12-11T06:38:51.479Z,97524.16
2022-12-11T06:41:19.629Z,97522.16
2022-12-11T06:43:47.407Z,97536.56
2022-12-11T06:46:17.613Z,97538.25
2022-12-11T06:48:46.902Z,97533.31
2022-12-11T06:51:19.687Z,97539.81
2022-12-11T06:53:56.275Z,97544.44
2022-12-11T06:56:24.342Z,97555.50
2022-12-11T06:58:52.395Z,97554.44
2022-12-11T07:01:25.699Z,97554.72
2022-12-11T07:03:55.315Z,97557.47
2022-12-11T07:06:23.402Z,97556.59
2022-12-11T07:08:51.301Z,97558.75
2022-12-11T07:11:20.370Z,97564.34
2022-12-11T07:13:48.207Z,97566.03
2022-12-11T07:16:17.522Z,97566.78
2022-12-11T07:18:50.067Z,97576.13
2022-12-11T07:21:18.912Z,97571.97
2022-12-11T07:23:47.550Z,97563.53
2022-12-11T07:26:17.428Z,97567.16
2022-12-11T07:28:45.581Z,97571.41
2022-12-11T07:31:16.843Z,97575.41
2022-12-11T07:33:45.853Z,97582.91
2022-12-11T07:36:14.789Z,97591.56
2022-12-11T07:38:42.400Z,97595.88
2022-12-11T07:41:12.474Z,97601.31
2022-12-11T07:43:40.903Z,97598.91
2022-12-11T07:46:12.066Z,97599.22
2022-12-11T07:48:41.336Z,97616.06
2022-12-11T07:51:20.660Z,97612.16
2022-12-11T07:53:49.839Z,97602.44
2022-12-11T07:56:18.157Z,97594.88
2022-12-11T07:58:46.231Z,97604.41
2022-12-11T08:01:17.844Z,97621.38
2022-12-11T08:03:46.488Z,97624.63
2022-12-11T08:06:14.362Z,97628.03
2022-12-11T08:08:42.215Z,97643.06
2022-12-11T08:11:12.846Z,97644.50
2022-12-11T08:13:41.471Z,97657.47
2022-12-11T08:16:11.476Z,97661.25
2022-12-11T08:18:39.908Z,97662.19
2022-12-11T08:21:12.223Z,97664.84
2022-12-11T08:26:54.143Z,97674.47
2022-12-11T08:29:37.568Z,97686.94
2022-12-11T08:32:10.528Z,97682.34
2022-12-11T08:34:40.181Z,97688.97
2022-12-11T08:37:07.870Z,97696.66
2022-12-11T08:39:35.575Z,97701.97
2022-12-11T08:42:03.430Z,97701.47
2022-12-11T08:44:31.223Z,97718.00
2022-12-11T08:46:58.884Z,97724.78
2022-12-11T08:49:32.710Z,97720.59
2022-12-11T08:52:04.011Z,97728.91
2022-12-11T08:54:33.082Z,97729.94
2022-12-11T08:57:00.892Z,97722.13
2022-12-11T08:59:28.728Z,97718.34
2022-12-11T09:01:58.859Z,97727.22
2022-12-11T09:04:26.548Z,97726.16
2022-12-11T09:06:54.459Z,97734.84
2022-12-11T09:09:22.503Z,97733.06
2022-12-11T09:11:50.133Z,97735.78
2022-12-11T09:14:17.825Z,97743.13
2022-12-11T09:16:45.698Z,97751.78
2022-12-11T09:19:15.237Z,97752.34
2022-12-11T09:21:43.507Z,97751.84
2022-12-11T09:24:12.233Z,97745.63
2022-12-11T09:26:40.000Z,97748.84
2022-12-11T09:29:08.098Z,97750.53
2022-12-11T09:31:36.976Z,97747.09
2022-12-11T09:34:08.201Z,97750.81
2022-12-11T09:36:35.940Z,97750.03
2022-12-11T09:39:05.892Z,97753.44
2022-12-11T09:41:37.693Z,97750.47
2022-12-11T09:44:08.587Z,97745.63
2022-12-11T09:46:36.929Z,97745.09
2022-12-11T09:49:14.595Z,97745.09
2022-12-11T09:51:46.647Z,97746.25
2022-12-11T09:54:14.883Z,97742.34
2022-12-11T09:56:46.762Z,97737.87
2022-12-11T09:59:51.791Z,97733.94
2022-12-11T10:02:28.236Z,97732.44
2022-12-11T10:05:25.682Z,97736.28
2022-12-11T10:08:22.670Z,97736.34
2022-12-11T10:10:53.600Z,97747.84
2022-12-11T10:13:37.484Z,97747.06
2022-12-11T10:16:13.882Z,97734.44
2022-12-11T10:18:41.956Z,97732.66
2022-12-11T10:21:11.123Z,97740.22
2022-12-11T10:23:51.181Z,97756.22
2022-12-11T10:26:22.447Z,97752.28
2022-12-11T10:28:50.375Z,97761.44
2022-12-11T10:31:41.313Z,97761.13
2022-12-11T10:34:13.793Z,97763.84
2022-12-11T10:36:43.916Z,97771.53
2022-12-11T10:39:17.869Z,97779.84
2022-12-11T10:41:47.269Z,97772.97
2022-12-11T10:44:18.180Z,97780.28
2022-12-11T10:46:49.866Z,97775.66
2022-12-11T10:49:26.813Z,97768.41
2022-12-11T10:51:55.269Z,97776.81
2022-12-11T10:54:32.472Z,97773.19
2022-12-11T10:57:01.953Z,97784.56
2022-12-11T10:59:48.186Z,97783.56
2022-12-11T11:02:31.217Z,97791.81
2022-12-11T11:05:00.755Z,97789.75
2022-12-11T11:07:30.630Z,97794.97
2022-12-11T11:10:11.938Z,97799.00
2022-12-11T11:12:48.891Z,97801.94
2022-12-11T11:15:20.182Z,97791.75
2022-12-11T11:17:54.905Z,97777.38
2022-12-11T11:20:31.151Z,97784.47
2022-12-11T11:23:08.869Z,97787.72
2022-12-11T11:25:36.577Z,97788.19
2022-12-11T11:28:06.708Z,97796.56
2022-12-11T11:30:38.090Z,97795.84
2022-12-11T11:33:20.098Z,97803.41
2022-12-11T11:35:56.602Z,97813.84
2022-12-11T11:39:05.884Z,97810.16
2022-12-11T11:41:56.082Z,97819.16
2022-12-11T11:44:38.396Z,97813.94
2022-12-11T11:47:20.063Z,97816.59
2022-12-11T11:49:59.650Z,97824.22
2022-12-11T11:53:12.437Z,97829.25
2022-12-11T11:56:10.567Z,97830.31
2022-12-11T11:58:45.544Z,97840.66
2022-12-11T12:01:16.565Z,97843.81
2022-12-11T12:03:45.557Z,97847.62
2022-12-11T12:06:25.414Z,97852.72
2022-12-11T12:09:08.482Z,97854.63
2022-12-11T12:11:42.305Z,97854.66
2022-12-11T12:17:36.353Z,97854.56
2022-12-11T12:20:13.648Z,97856.97
2022-12-11T12:23:12.434Z,97863.31
2022-12-11T12:26:21.716Z,97861.34
2022-12-11T12:29:23.690Z,97867.09
2022-12-11T12:32:31.972Z,97865.78
2022-12-11T12:35:18.381Z,97857.81
2022-12-11T12:37:56.026Z,97857.72
2022-12-11T12:40:29.790Z,97860.16
2022-12-11T12:43:22.649Z,97863.03
2022-12-11T12:46:11.783Z,97869.22
2022-12-11T12:48:39.894Z,97884.13
2022-12-11T12:51:08.752Z,97884.41
2022-12-11T12:53:37.405Z,97884.72
2022-12-11T12:56:06.246Z,97887.75
2022-12-11T12:58:33.748Z,97894.06
2022-12-11T13:01:23.203Z,97905.25
2022-12-11T13:03:56.479Z,97906.75
2022-12-11T13:06:34.404Z,97916.66
2022-12-11T13:09:25.122Z,97915.59
2022-12-11T13:11:55.594Z,97922.56
2022-12-11T13:14:26.250Z,97917.69
2022-12-11T13:17:27.689Z,97938.06
2022-12-11T13:20:12.934Z,97941.50
2022-12-11T13:23:16.507Z,97944.66
2022-12-11T13:25:55.854Z,97950.75
2022-12-11T13:28:26.840Z,97952.31
2022-12-11T13:31:25.693Z,97959.78
2022-12-11T13:33:56.071Z,97951.63
2022-12-11T13:36:30.353Z,97954.19
2022-12-11T13:39:03.698Z,97954.41
2022-12-11T13:41:35.056Z,97952.63
2022-12-11T13:44:03.474Z,97953.91
2022-12-11T13:46:37.117Z,97966.09
2022-12-11T13:49:07.440Z,97959.91
2022-12-11T13:51:35.695Z,97961.06
2022-12-11T13:54:17.755Z,97963.66
2022-12-11T13:56:57.754Z,97966.50
2022-12-11T13:59:32.360Z,97959.69
2022-12-11T14:02:04.906Z,97971.19
2022-12-11T14:04:34.348Z,97969.09
2022-12-11T14:07:02.342Z,97971.47
2022-12-11T14:09:30.591Z,97968.66
2022-12-11T14:11:59.076Z,97977.34
2022-12-11T14:14:33.435Z,97983.34
2022-12-11T14:17:02.085Z,97992.53
2022-12-11T14:19:29.760Z,97996.19
2022-12-11T14:22:03.571Z,97997.94
2022-12-11T14:24:34.668Z,97997.91
2022-12-11T14:27:02.322Z,98012.78
2022-12-11T14:29:33.313Z,98009.81
2022-12-11T14:32:05.519Z,98010.25
2022-12-11T14:34:34.499Z,98018.50
2022-12-11T14:37:06.456Z,98016.59
2022-12-11T14:39:42.147Z,98030.34
2022-12-11T14:42:15.545Z,98027.19
2022-12-11T14:44:55.807Z,98023.62
2022-12-11T14:47:27.790Z,98028.97
2022-12-11T14:49:59.465Z,98038.97
2022-12-11T14:52:45.210Z,98037.97
2022-12-11T14:55:20.548Z,98046.66
2022-12-11T14:57:50.486Z,98046.44
2022-12-11T15:00:31.853Z,98040.63
2022-12-11T15:03:01.855Z,98036.03
2022-12-11T15:05:31.085Z,98043.72
2022-12-11T15:08:15.756Z,98037.75
2022-12-11T15:10:57.129Z,98044.75
2022-12-11T15:13:28.377Z,98054.16
2022-12-11T15:15:56.430Z,98054.81
2022-12-11T15:18:27.664Z,98060.19
2022-12-11T15:21:07.448Z,98059.41
2022-12-11T15:23:56.828Z,98066.78
2022-12-11T15:26:45.614Z,98070.13
2022-12-11T15:29:42.919Z,98067.94
2022-12-11T15:32:10.774Z,98070.72
2022-12-11T15:35:23.308Z,98075.00
2022-12-11T15:37:57.518Z,98075.22
2022-12-11T15:40:25.673Z,98081.81
2022-12-11T15:42:53.903Z,98086.78
2022-12-11T15:45:24.128Z,98078.59
2022-12-11T15:47:52.377Z,98080.34
2022-12-11T15:50:25.618Z,98084.44
2022-12-11T15:52:54.766Z,98075.88
2022-12-11T15:55:24.135Z,98077.31
2022-12-11T15:57:59.862Z,98070.38
2022-12-11T16:00:28.550Z,98074.31
2022-12-11T16:02:57.259Z,98076.50
2022-12-11T16:05:26.111Z,98073.06
2022-12-11T16:07:54.330Z,98074.34
2022-12-11T16:10:22.887Z,98076.06
2022-12-11T16:12:50.923Z,98082.84
2022-12-11T16:15:23.509Z,98085.59
2022-12-11T16:18:06.335Z,98090.13
2022-12-11T16:20:37.120Z,98087.41
2022-12-11T16:23:05.644Z,98097.75
2022-12-11T16:25:33.850Z,98097.34
2022-12-11T16:28:03.327Z,98096.31
2022-12-11T16:30:31.490Z,98101.53
2022-12-11T16:32:59.545Z,98103.72
2022-12-11T16:35:31.343Z,98102.19
2022-12-11T16:38:06.449Z,98097.97
2022-12-11T16:40:34.059Z,98102.53
2022-12-11T16:43:03.899Z,98104.91
2022-12-11T16:45:31.970Z,98106.75
2022-12-11T16:48:03.300Z,98106.25
2022-12-11T16:50:31.322Z,98109.69
2022-12-11T16:52:59.246Z,98108.00
2022-12-11T16:55:26.873Z,98107.66
2022-12-11T16:57:55.292Z,98106.69
2022-12-11T17:00:25.485Z,98119.72
2022-12-11T17:02:53.325Z,98116.28
2022-12-11T17:05:22.587Z,98121.44
2022-12-11T17:07:50.451Z,98108.56
2022-12-11T17:10:19.047Z,98123.91
2022-12-11T17:12:47.205Z,98111.16
2022-12-11T17:15:15.319Z,98126.34
2022-12-11T17:17:43.165Z,98109.13
2022-12-11T17:20:11.614Z,98107.66
2022-12-11T17:22:39.858Z,98111.91
2022-12-11T17:25:08.145Z,98106.78
2022-12-11T17:27:36.097Z,98107.75
2022-12-11T17:30:05.046Z,98118.50
2022-12-11T17:32:33.396Z,98116.91
2022-12-11T17:35:01.711Z,98113.63
2022-12-11T17:37:30.226Z,98116.13
2022-12-11T17:39:59.230Z,98112.97
2022-12-11T17:42:28.026Z,98112.97
2022-12-11T17:44:55.786Z,98113.31
2022-12-11T17:47:23.563Z,98114.28
2022-12-11T17:49:52.604Z,98114.34
2022-12-11T17:52:20.465Z,98105.47
2022-12-11T17:54:48.199Z,98108.72
2022-12-11T17:57:16.370Z,98110.78
2022-12-11T17:59:44.169Z,98114.00
2022-12-11T18:02:12.112Z,98108.09
2022-12-11T18:04:40.546Z,98110.25
2022-12-11T18:07:08.526Z,98121.91
2022-12-11T18:09:39.432Z,98116.13
2022-12-11T18:12:09.326Z,98119.00
2022-12-11T18:14:37.383Z,98118.41
2022-12-11T18:17:06.569Z,98116.53
2022-12-11T18:19:34.955Z,98124.75
2022-12-11T18:22:02.787Z,98130.62
2022-12-11T18:24:30.850Z,98132.72
2022-12-11T18:26:59.249Z,98130.38
2022-12-11T18:29:27.210Z,98134.31
2022-12-11T18:31:55.229Z,98132.75
2022-12-11T18:34:23.405Z,98138.88
2022-12-11T18:36:51.282Z,98136.66
2022-12-11T18:39:19.170Z,98142.88
2022-12-11T18:42:03.450Z,98143.13
2022-12-11T18:44:35.397Z,98151.56
2022-12-11T18:47:03.627Z,98145.72
2022-12-11T18:49:31.869Z,98156.31
2022-12-11T18:51:59.848Z,98157.13
2022-12-11T18:54:27.883Z,98147.16
2022-12-11T18:56:55.700Z,98153.69
2022-12-11T18:59:23.590Z,98156.63
2022-12-11T19:01:52.090Z,98158.47
2022-12-11T19:04:20.134Z,98169.88
2022-12-11T19:06:49.015Z,98179.87
2022-12-11T19:09:18.900Z,98187.09
2022-12-11T19:11:46.776Z,98187.09
2022-12-11T19:14:14.775Z,98194.16
2022-12-11T19:16:45.239Z,98196.56
2022-12-11T19:19:18.672Z,98192.66
2022-12-11T19:21:47.796Z,98198.41
2022-12-11T19:24:19.447Z,98196.28
2022-12-11T19:26:48.221Z,98201.34
2022-12-11T19:29:23.214Z,98196.53
2022-12-11T19:31:51.811Z,98191.69
2022-12-11T19:34:19.746Z,98181.50
2022-12-11T19:36:48.959Z,98187.91
2022-12-11T19:39:17.587Z,98183.03
2022-12-11T19:41:45.642Z,98181.81
2022-12-11T19:44:13.434Z,98170.47
2022-12-11T19:46:41.803Z,98189.19
2022-12-11T19:49:12.879Z,98191.22
2022-12-11T19:51:42.098Z,98203.69
2022-12-11T19:54:14.044Z,98205.81
2022-12-11T19:56:42.352Z,98204.81
2022-12-11T19:59:15.443Z,98209.00
2022-12-11T20:01:45.108Z,98213.28
2022-12-11T20:04:16.719Z,98215.13
2022-12-11T20:06:44.879Z,98213.03
2022-12-11T20:09:13.293Z,98221.19
2022-12-11T20:11:43.177Z,98215.13
2022-12-11T20:14:23.163Z,98215.38
2022-12-11T20:19:40.434Z,98226.50
2022-12-11T20:22:08.846Z,98218.31
2022-12-11T20:24:42.561Z,98221.75
2022-12-11T20:27:10.844Z,98221.50
2022-12-11T20:29:43.466Z,98226.25
2022-12-11T20:32:12.368Z,98229.94
2022-12-11T20:34:40.371Z,98231.53
2022-12-11T20:37:08.181Z,98234.91
2022-12-11T20:39:36.632Z,98224.91
2022-12-11T20:42:08.964Z,98223.34
2022-12-11T20:44:37.226Z,98220.66
2022-12-11T20:47:05.022Z,98218.88
2022-12-11T20:49:33.312Z,98216.47
2022-12-11T20:52:02.049Z,98213.84
2022-12-11T20:54:29.823Z,98219.94
2022-12-11T20:56:57.606Z,98223.63
2022-12-11T20:59:25.931Z,98221.00
2022-12-11T21:01:53.875Z,98223.41
2022-12-11T21:04:21.971Z,98231.56
2022-12-11T21:06:52.163Z,98235.81
2022-12-11T21:09:20.084Z,98241.06
2022-12-11T21:11:48.058Z,98247.16
2022-12-11T21:14:17.296Z,98251.12
2022-12-11T21:16:47.022Z,98251.41
2022-12-11T21:19:16.848Z,98254.56
2022-12-11T21:21:45.589Z,98251.41
2022-12-11T21:24:20.963Z,98255.59
2022-12-11T21:26:49.370Z,98265.16
2022-12-11T21:29:17.714Z,98261.97
2022-12-11T21:31:45.358Z,98264.88
2022-12-11T21:34:13.318Z,98268.59
2022-12-11T21:36:40.910Z,98265.69
2022-12-11T21:39:08.513Z,98277.03
2022-12-11T21:41:36.446Z,98288.13
2022-12-11T21:46:52.231Z,98280.72
2022-12-11T21:49:20.120Z,98287.81
2022-12-11T21:51:47.971Z,98278.87
2022-12-11T21:54:18.063Z,98290.25
2022-12-11T21:56:46.612Z,98283.88
2022-12-11T21:59:14.542Z,98285.75
2022-12-11T22:01:44.589Z,98282.56
2022-12-11T22:04:14.121Z,98285.47
2022-12-11T22:06:41.835Z,98286.25
2022-12-11T22:09:10.905Z,98282.81
2022-12-11T22:11:39.154Z,98280.97
2022-12-11T22:14:07.339Z,98283.59
2022-12-11T22:16:35.429Z,98291.25
2022-12-11T22:19:05.372Z,98294.41
2022-12-11T22:21:33.268Z,98298.09
2022-12-11T22:24:00.942Z,98299.09
2022-12-11T22:26:29.295Z,98294.72
2022-12-11T22:28:57.421Z,98291.97
2022-12-11T22:31:26.534Z,98293.09
2022-12-11T22:33:55.169Z,98296.78
2022-12-11T22:36:27.056Z,98299.91
2022-12-11T22:38:54.952Z,98298.03
2022-12-11T22:41:26.777Z,98297.78
2022-12-11T22:43:55.216Z,98286.75
2022-12-11T22:46:25.651Z,98283.78
2022-12-11T22:48:53.599Z,98284.09
2022-12-11T22:51:21.796Z,98288.53
2022-12-11T22:53:50.036Z,98300.41
2022-12-11T22:56:17.867Z,98300.44
2022-12-11T22:58:45.546Z,98300.94
2022-12-11T23:01:19.493Z,98302.50
2022-12-11T23:03:47.766Z,98298.28
2022-12-11T23:06:18.123Z,98296.84
2022-12-11T23:08:46.383Z,98301.13
2022-12-11T23:11:17.182Z,98300.66
2022-12-11T23:13:45.342Z,98307.81
2022-12-11T23:16:13.223Z,98306.16
2022-12-11T23:18:41.126Z,98309.75
2022-12-11T23:21:10.056Z,98314.56
2022-12-11T23:23:37.972Z,98318.00
2022-12-11T23:26:06.739Z,98315.84
2022-12-11T23:28:34.844Z,98317.75
2022-12-11T23:31:02.775Z,98317.41
2022-12-11T23:33:30.739Z,98324.84
2022-12-11T23:35:59.230Z,98319.84
2022-12-11T23:38:26.868Z,98323.03
2022-12-11T23:40:54.581Z,98332.13
2022-12-11T23:43:22.638Z,98326.34
2022-12-11T23:45:50.522Z,98322.38
2022-12-11T23:48:18.442Z,98319.16
2022-12-11T23:50:46.515Z,98318.72
2022-12-11T23:53:14.862Z,98313.69
2022-12-11T23:55:44.471Z,98313.81
2022-12-11T23:58:12.548Z,98314.59
